Time;durP1;ratioP1;P1;durP2;ratioP2;P2;SDS_P1;SDS_P2;PMS_P1;PMS_P2;Temp;Humidity;BMP_temperature;BMP_pressure;BME280_temperature;BME280_humidity;BME280_pressure;Samples;Min_cycle;Max_cycle;Signal;HPM_P1;HPM_P2
2022/07/13 00:01:46;;;;;;;0.65;0.45;;;16.10;73.10;16.10;101185.00;;;;4998145;27;87312;-62
2022/07/13 00:04:12;;;;;;;0.45;0.45;;;16.00;73.60;16.00;101172.00;;;;4998234;27;82070;-62
2022/07/13 00:06:38;;;;;;;0.40;0.38;;;16.00;74.20;16.00;101182.00;;;;4996738;27;97384;-62
2022/07/13 00:09:03;;;;;;;1.08;0.80;;;15.90;74.70;15.90;101184.00;;;;4996566;28;112424;-63
2022/07/13 00:11:29;;;;;;;1.00;0.80;;;15.90;75.30;15.90;101169.00;;;;5007675;27;109765;-62
2022/07/13 00:13:55;;;;;;;0.52;0.52;;;15.90;75.90;15.90;101164.00;;;;5012171;27;82668;-62
2022/07/13 00:16:21;;;;;;;1.67;0.95;;;15.80;76.50;15.80;101171.00;;;;4996473;28;111235;-62
2022/07/13 00:18:47;;;;;;;1.17;0.68;;;15.70;77.10;15.70;101164.00;;;;4998043;27;83329;-62
2022/07/13 00:21:13;;;;;;;1.42;0.80;;;15.70;77.50;15.70;101169.00;;;;4989384;28;84116;-62
2022/07/13 00:23:39;;;;;;;2.50;0.60;;;15.70;78.20;15.70;101168.00;;;;4997102;28;82458;-62
2022/07/13 00:26:04;;;;;;;0.75;0.75;;;15.60;78.70;15.60;101165.00;;;;5012152;27;110420;-62
2022/07/13 00:28:30;;;;;;;0.70;0.70;;;15.60;79.20;15.60;101172.00;;;;5020533;27;82788;-62
2022/07/13 00:30:56;;;;;;;0.82;0.70;;;15.60;79.80;15.50;101167.00;;;;5021295;27;93051;-62
2022/07/13 00:33:21;;;;;;;2.60;0.65;;;15.50;80.40;15.50;101160.00;;;;5011260;27;109995;-62
2022/07/13 00:35:47;;;;;;;1.05;0.80;;;15.40;80.90;15.40;101169.00;;;;5001328;27;83691;-62
2022/07/13 00:38:13;;;;;;;1.17;0.60;;;15.40;81.50;15.40;101154.00;;;;4999256;28;113446;-62
2022/07/13 00:40:38;;;;;;;1.35;1.10;;;15.40;82.00;15.40;101151.00;;;;5000923;27;98813;-62
2022/07/13 00:43:04;;;;;;;0.55;0.55;;;15.30;82.60;15.30;101168.00;;;;5006059;27;109625;-62
2022/07/13 00:45:31;;;;;;;0.70;0.70;;;15.30;83.10;15.20;101168.00;;;;5003016;27;110705;-62
2022/07/13 00:47:57;;;;;;;0.60;0.60;;;15.20;83.80;15.20;101166.00;;;;5000335;28;83332;-62
2022/07/13 00:50:23;;;;;;;0.82;0.77;;;15.20;84.70;15.10;101161.00;;;;4997858;27;109762;-62
2022/07/13 00:52:50;;;;;;;0.55;0.55;;;15.10;85.10;15.10;101167.00;;;;4982459;28;82029;-62
2022/07/13 00:55:16;;;;;;;1.50;0.63;;;15.10;85.60;15.10;101164.00;;;;5000059;27;103623;-62
2022/07/13 00:57:42;;;;;;;1.33;0.80;;;15.00;86.00;15.00;101162.00;;;;4981824;28;83650;-62
2022/07/13 01:00:12;;;;;;;0.77;0.77;;;15.00;86.50;15.00;101154.00;;;;5002054;27;110487;-62
2022/07/13 01:02:43;;;;;;;0.83;0.80;;;15.00;87.00;15.00;101154.00;;;;5016260;27;83071;-62
2022/07/13 01:05:13;;;;;;;1.10;0.97;;;14.90;87.60;14.90;101138.00;;;;5006643;27;82793;-62
2022/07/13 01:07:40;;;;;;;0.47;0.47;;;14.90;88.60;14.80;101140.00;;;;5004992;27;84536;-62
2022/07/13 01:10:08;;;;;;;0.63;0.63;;;14.80;89.20;14.80;101144.00;;;;5018704;27;82884;-62
2022/07/13 01:12:36;;;;;;;1.80;1.20;;;14.80;89.90;14.70;101147.00;;;;5001404;27;82548;-62
2022/07/13 01:15:04;;;;;;;6.03;1.00;;;14.70;90.10;14.70;101158.00;;;;5019081;27;83414;-62
2022/07/13 01:17:32;;;;;;;0.75;0.55;;;14.70;90.30;14.70;101149.00;;;;5015735;27;83833;-62
2022/07/13 01:19:58;;;;;;;0.47;0.47;;;14.60;90.50;14.70;101150.00;;;;4982521;27;82656;-62
2022/07/13 01:22:28;;;;;;;0.60;0.60;;;14.70;90.70;14.70;101145.00;;;;4979461;28;90151;-62
2022/07/13 01:24:55;;;;;;;1.33;0.53;;;14.60;90.90;14.70;101150.00;;;;4999156;27;102318;-61
2022/07/13 01:27:21;;;;;;;0.77;0.70;;;14.60;91.40;14.60;101151.00;;;;5014968;27;89581;-62
2022/07/13 01:29:47;;;;;;;0.53;0.53;;;14.50;91.90;14.50;101149.00;;;;5000235;27;82849;-62
2022/07/13 01:32:13;;;;;;;0.80;0.80;;;14.50;92.20;14.50;101143.00;;;;4999449;28;82809;-63
2022/07/13 01:34:39;;;;;;;2.47;0.67;;;14.50;92.40;14.50;101141.00;;;;4999322;28;111890;-62
2022/07/13 01:37:04;;;;;;;2.50;1.00;;;14.40;92.60;14.50;101143.00;;;;5006602;27;84909;-62
2022/07/13 01:39:30;;;;;;;1.00;0.70;;;14.40;93.10;14.50;101140.00;;;;5018980;27;110479;-62
2022/07/13 01:41:56;;;;;;;1.10;0.70;;;14.40;93.30;14.50;101137.00;;;;5001859;27;92575;-62
2022/07/13 01:44:22;;;;;;;1.07;0.83;;;14.40;93.60;14.50;101148.00;;;;4999904;27;82796;-62
2022/07/13 01:46:47;;;;;;;3.47;1.00;;;14.40;93.80;14.60;101150.00;;;;5017781;27;83302;-62
2022/07/13 01:49:13;;;;;;;0.80;0.77;;;14.50;94.00;14.60;101128.00;;;;5001268;27;110390;-62
2022/07/13 01:51:39;;;;;;;1.00;0.90;;;14.50;94.10;14.70;101126.00;;;;4998854;27;82747;-62
2022/07/13 01:54:05;;;;;;;0.50;0.50;;;14.50;94.30;14.70;101131.00;;;;4991309;27;83210;-62
2022/07/13 01:56:32;;;;;;;0.70;0.70;;;14.60;94.50;14.70;101118.00;;;;5018396;27;113159;-62
2022/07/13 01:59:01;;;;;;;0.70;0.70;;;14.60;94.70;14.70;101111.00;;;;5005522;27;82955;-62
2022/07/13 02:01:27;;;;;;;4.47;1.33;;;14.60;94.80;14.80;101109.00;;;;4999202;27;82774;-62
2022/07/13 02:03:54;;;;;;;0.70;0.70;;;14.70;95.00;14.80;101104.00;;;;5000007;28;85861;-62
2022/07/13 02:06:20;;;;;;;1.73;0.80;;;14.70;95.10;14.80;101096.00;;;;5011893;27;83924;-62
2022/07/13 02:08:46;;;;;;;0.43;0.40;;;14.70;95.10;14.90;101091.00;;;;5006315;27;100826;-62
2022/07/13 02:11:16;;;;;;;1.13;0.87;;;14.80;95.20;14.90;101089.00;;;;4998457;27;108973;-62
2022/07/13 02:13:46;;;;;;;0.97;0.80;;;14.80;95.40;15.00;101093.00;;;;4999326;27;84052;-62
2022/07/13 02:16:14;;;;;;;0.93;0.83;;;14.80;95.40;15.00;101091.00;;;;4999441;28;84702;-62
2022/07/13 02:18:40;;;;;;;0.50;0.33;;;14.80;95.40;15.00;101079.00;;;;5005421;27;82716;-62
2022/07/13 02:21:06;;;;;;;1.95;0.77;;;14.90;95.40;15.10;101084.00;;;;4983078;27;94941;-62
2022/07/13 02:23:32;;;;;;;1.38;0.50;;;14.90;95.50;15.10;101089.00;;;;4998653;28;90746;-62
2022/07/13 02:25:57;;;;;;;0.75;0.50;;;15.00;95.50;15.10;101092.00;;;;4998396;27;112304;-62
2022/07/13 02:28:23;;;;;;;0.77;0.77;;;15.00;95.50;15.10;101091.00;;;;5004438;27;109618;-62
2022/07/13 02:30:49;;;;;;;0.68;0.63;;;15.00;95.60;15.10;101085.00;;;;5018546;27;94822;-62
2022/07/13 02:33:15;;;;;;;1.25;0.60;;;15.00;95.80;15.10;101080.00;;;;5018599;27;83654;-62
2022/07/13 02:35:40;;;;;;;0.70;0.67;;;15.00;95.80;15.10;101084.00;;;;5000149;27;113443;-62
2022/07/13 02:38:06;;;;;;;1.48;0.80;;;15.00;95.90;15.10;101079.00;;;;5005125;27;101637;-62
2022/07/13 02:40:32;;;;;;;1.48;1.02;;;15.00;96.00;15.20;101093.00;;;;4998524;27;109766;-62
2022/07/13 02:42:58;;;;;;;8.02;0.50;;;15.10;96.40;15.10;101093.00;;;;4998376;28;82731;-62
2022/07/13 02:45:23;;;;;;;0.65;0.50;;;15.00;96.40;15.10;101088.00;;;;4997387;27;113856;-62
2022/07/13 02:47:49;;;;;;;1.08;0.93;;;15.00;96.30;15.20;101089.00;;;;4982204;27;111139;-62
2022/07/13 02:50:15;;;;;;;0.75;0.75;;;15.00;96.30;15.20;101085.00;;;;5006356;27;104324;-62
2022/07/13 02:52:41;;;;;;;0.73;0.60;;;15.10;96.40;15.20;101083.00;;;;5012311;27;112701;-62
2022/07/13 02:55:07;;;;;;;1.75;1.02;;;15.10;96.30;15.20;101089.00;;;;5016961;27;82266;-62
2022/07/13 02:57:33;;;;;;;1.50;1.20;;;15.10;96.20;15.20;101082.00;;;;4999219;27;97964;-62
2022/07/13 02:59:59;;;;;;;1.97;0.70;;;15.10;96.20;15.30;101080.00;;;;5017214;27;109312;-63
2022/07/13 03:02:24;;;;;;;0.60;0.60;;;15.10;96.20;15.30;101079.00;;;;5017472;27;113823;-62
2022/07/13 03:04:50;;;;;;;0.60;0.60;;;15.20;96.30;15.30;101077.00;;;;5013432;27;111920;-62
2022/07/13 03:07:16;;;;;;;0.40;0.40;;;15.20;96.20;15.30;101076.00;;;;4998609;28;82653;-62
2022/07/13 03:09:42;;;;;;;0.68;0.68;;;15.20;96.20;15.30;101081.00;;;;5017743;27;82736;-62
2022/07/13 03:12:08;;;;;;;0.87;0.67;;;15.20;96.20;15.40;101074.00;;;;5017531;27;83621;-62
2022/07/13 03:14:33;;;;;;;0.67;0.50;;;15.30;96.20;15.40;101072.00;;;;5018170;27;111629;-62
2022/07/13 03:16:59;;;;;;;0.82;0.73;;;15.30;96.20;15.40;101079.00;;;;5000014;27;83437;-62
2022/07/13 03:19:25;;;;;;;1.25;0.80;;;15.30;96.50;15.40;101081.00;;;;5009509;27;81804;-62
2022/07/13 03:21:50;;;;;;;0.68;0.63;;;15.30;96.40;15.50;101082.00;;;;5016391;27;95977;-62
2022/07/13 03:24:16;;;;;;;1.08;0.75;;;15.40;96.40;15.50;101088.00;;;;5017181;27;112237;-62
2022/07/13 03:26:42;;;;;;;0.88;0.88;;;15.40;96.30;15.50;101086.00;;;;4995458;27;111753;-62
2022/07/13 03:29:08;;;;;;;1.05;1.00;;;15.40;96.30;15.60;101071.00;;;;5008777;27;107664;-62
2022/07/13 03:31:34;;;;;;;0.77;0.60;;;15.50;96.30;15.60;101076.00;;;;5014604;27;83789;-62
2022/07/13 03:33:59;;;;;;;0.73;0.73;;;15.50;96.60;15.50;101081.00;;;;4997820;27;83094;-62
2022/07/13 03:36:25;;;;;;;0.57;0.38;;;15.50;96.60;15.60;101081.00;;;;4996643;28;110275;-63
2022/07/13 03:38:51;;;;;;;0.47;0.47;;;15.40;96.60;15.60;101078.00;;;;5009289;27;82635;-62
2022/07/13 03:41:17;;;;;;;1.02;0.65;;;15.50;96.70;15.50;101071.00;;;;5017627;27;83034;-62
2022/07/13 03:43:43;;;;;;;0.38;0.38;;;15.50;96.70;15.60;101082.00;;;;5017838;27;112967;-62
2022/07/13 03:46:09;;;;;;;2.72;0.70;;;15.50;96.70;15.60;101083.00;;;;5017792;27;82766;-62
2022/07/13 03:48:35;;;;;;;1.13;0.93;;;15.50;96.70;15.60;101084.00;;;;5008117;27;109752;-62
2022/07/13 03:51:01;;;;;;;0.40;0.40;;;15.50;96.70;15.60;101087.00;;;;4996976;28;85986;-62
2022/07/13 03:53:26;;;;;;;2.17;1.00;;;15.60;96.70;15.70;101089.00;;;;4997493;28;85011;-62
2022/07/13 03:55:52;;;;;;;1.27;0.90;;;15.50;96.70;15.70;101081.00;;;;4979270;28;105191;-62
2022/07/13 03:58:18;;;;;;;0.75;0.55;;;15.60;96.70;15.70;101079.00;;;;5005425;27;108180;-62
2022/07/13 04:00:43;;;;;;;1.30;0.88;;;15.60;96.90;15.70;101065.00;;;;4997496;27;113303;-62
2022/07/13 04:03:09;;;;;;;0.65;0.55;;;15.60;96.80;15.80;101073.00;;;;4982073;28;89983;-62
2022/07/13 04:05:35;;;;;;;0.85;0.70;;;15.60;96.90;15.80;101073.00;;;;5000682;28;111198;-62
2022/07/13 04:08:00;;;;;;;0.70;0.70;;;15.60;96.90;15.90;101079.00;;;;5002105;27;82126;-62
2022/07/13 04:10:26;;;;;;;0.55;0.52;;;15.70;97.00;15.90;101066.00;;;;5005217;27;111188;-62
2022/07/13 04:12:52;;;;;;;1.88;0.70;;;15.70;96.90;15.90;101066.00;;;;5020268;27;110836;-62
2022/07/13 04:15:17;;;;;;;1.20;0.88;;;15.80;97.00;15.90;101068.00;;;;5020184;27;111236;-62
2022/07/13 04:17:44;;;;;;;0.63;0.63;;;15.80;97.00;16.00;101079.00;;;;5020294;27;108494;-62
2022/07/13 04:20:10;;;;;;;1.92;0.88;;;15.90;97.30;16.10;101070.00;;;;5016569;27;113215;-62
2022/07/13 04:22:36;;;;;;;1.20;0.73;;;15.90;96.90;16.10;101075.00;;;;5001326;27;82667;-60
2022/07/13 04:25:06;;;;;;;1.77;0.85;;;16.00;96.90;16.20;101077.00;;;;5002144;27;101391;-63
2022/07/13 04:27:32;;;;;;;0.45;0.45;;;16.00;96.80;16.20;101073.00;;;;4999693;28;94065;-62
2022/07/13 04:29:57;;;;;;;0.70;0.70;;;16.10;96.60;16.30;101073.00;;;;5011559;27;88204;-62
2022/07/13 04:32:23;;;;;;;0.75;0.68;;;16.10;96.50;16.40;101069.00;;;;5012643;27;118248;-61
2022/07/13 04:34:49;;;;;;;1.35;1.25;;;16.20;96.50;16.40;101077.00;;;;5009513;27;110013;-62
2022/07/13 04:37:14;;;;;;;0.80;0.70;;;16.30;96.40;16.50;101065.00;;;;5018616;27;91560;-63
2022/07/13 04:39:40;;;;;;;0.75;0.55;;;16.30;96.30;16.50;101066.00;;;;4997436;27;116991;-63
2022/07/13 04:42:07;;;;;;;0.95;0.70;;;16.40;96.50;16.60;101070.00;;;;4996320;28;118226;-63
2022/07/13 04:44:33;;;;;;;0.85;0.82;;;16.40;96.20;16.60;101068.00;;;;5015529;27;87520;-62
2022/07/13 04:46:58;;;;;;;0.47;0.47;;;16.40;96.00;16.60;101073.00;;;;5014059;27;105474;-62
2022/07/13 04:49:24;;;;;;;1.55;0.65;;;16.50;96.00;16.70;101067.00;;;;5016783;27;116867;-62
2022/07/13 04:51:50;;;;;;;0.77;0.65;;;16.50;95.90;16.70;101057.00;;;;4996326;27;95924;-62
2022/07/13 04:54:18;;;;;;;1.27;0.57;;;16.50;95.90;16.70;101062.00;;;;5017253;27;87611;-62
2022/07/13 04:56:44;;;;;;;1.98;1.02;;;16.60;96.00;16.80;101069.00;;;;5001689;27;99181;-62
2022/07/13 04:59:10;;;;;;;1.08;0.38;;;16.60;95.90;16.80;101065.00;;;;4995879;27;118085;-62
2022/07/13 05:01:36;;;;;;;1.30;0.77;;;16.70;96.00;16.80;101074.00;;;;4981997;28;87995;-63
2022/07/13 05:04:03;;;;;;;1.23;0.80;;;16.70;95.90;16.90;101058.00;;;;5014708;27;88585;-62
2022/07/13 05:06:29;;;;;;;0.40;0.40;;;16.70;95.90;16.90;101059.00;;;;5001991;27;88293;-62
2022/07/13 05:08:55;;;;;;;1.08;0.80;;;16.70;95.90;16.90;101058.00;;;;4998538;27;87643;-62
2022/07/13 05:11:20;;;;;;;0.80;0.80;;;16.80;95.80;17.00;101061.00;;;;4995850;27;118412;-62
2022/07/13 05:13:47;;;;;;;2.70;0.73;;;16.90;95.80;17.10;101069.00;;;;5010582;27;110699;-61
2022/07/13 05:16:12;;;;;;;0.52;0.40;;;16.90;95.70;17.10;101082.00;;;;5017486;27;90419;-62
2022/07/13 05:18:38;;;;;;;0.52;0.52;;;17.00;95.70;17.20;101081.00;;;;5017214;27;116499;-62
2022/07/13 05:21:04;;;;;;;0.93;0.50;;;17.00;95.70;17.30;101077.00;;;;5007372;27;116077;-62
2022/07/13 05:23:30;;;;;;;0.95;0.60;;;17.10;95.60;17.30;101074.00;;;;5010116;27;87939;-62
2022/07/13 05:25:55;;;;;;;1.35;0.70;;;17.20;95.50;17.40;101085.00;;;;5017954;27;88007;-62
2022/07/13 05:28:21;;;;;;;1.08;0.73;;;17.20;95.40;17.50;101089.00;;;;5015618;27;118849;-62
2022/07/13 05:30:47;;;;;;;0.85;0.75;;;17.30;95.40;17.60;101101.00;;;;5016631;27;117610;-62
2022/07/13 05:33:16;;;;;;;0.30;0.30;;;17.40;95.30;17.60;101084.00;;;;5015267;27;110997;-62
2022/07/13 05:35:42;;;;;;;0.68;0.50;;;17.40;95.30;17.70;101099.00;;;;5017804;27;87671;-62
2022/07/13 05:38:08;;;;;;;0.65;0.60;;;17.50;95.20;17.80;101101.00;;;;5016602;27;116954;-63
2022/07/13 05:40:34;;;;;;;0.95;0.73;;;17.60;95.20;17.90;101087.00;;;;5015206;27;118102;-63
2022/07/13 05:42:59;;;;;;;1.65;0.95;;;17.70;95.20;17.90;101084.00;;;;5009877;27;97512;-62
2022/07/13 05:45:25;;;;;;;1.00;0.63;;;17.70;95.10;18.00;101083.00;;;;4996769;27;105507;-63
2022/07/13 05:47:51;;;;;;;0.50;0.45;;;17.80;95.10;18.00;101077.00;;;;4997177;28;88332;-62
2022/07/13 05:50:17;;;;;;;0.35;0.32;;;17.80;94.90;18.10;101077.00;;;;5004430;27;117539;-62
2022/07/13 05:52:43;;;;;;;0.95;0.80;;;17.90;94.80;18.20;101089.00;;;;5000488;27;88899;-63
2022/07/13 05:55:11;;;;;;;1.10;1.00;;;18.00;94.60;18.30;101099.00;;;;5016595;27;99853;-62
2022/07/13 05:57:38;;;;;;;3.20;0.90;;;18.10;94.50;18.40;101090.00;;;;5016588;27;88938;-63
2022/07/13 06:00:08;;;;;;;1.00;0.95;;;18.20;94.30;18.50;101091.00;;;;5000445;27;115918;-63
2022/07/13 06:02:34;;;;;;;1.85;1.45;;;18.30;94.20;18.60;101081.00;;;;4997626;27;87704;-62
2022/07/13 06:05:00;;;;;;;1.10;1.00;;;18.40;94.00;18.70;101082.00;;;;4996450;28;87600;-63
2022/07/13 06:07:26;;;;;;;2.25;0.95;;;18.50;93.90;18.80;101088.00;;;;4994985;28;117193;-62
2022/07/13 06:09:52;;;;;;;0.70;0.70;;;18.50;93.70;18.90;101091.00;;;;4997492;27;88267;-63
2022/07/13 06:12:18;;;;;;;2.42;0.90;;;18.60;93.60;19.00;101083.00;;;;4997085;27;88157;-63
2022/07/13 06:14:43;;;;;;;1.00;0.60;;;18.70;93.40;19.10;101081.00;;;;5015614;27;87708;-63
2022/07/13 06:17:09;;;;;;;1.00;0.60;;;18.80;93.30;19.10;101079.00;;;;5015090;27;118494;-63
2022/07/13 06:19:35;;;;;;;0.50;0.50;;;18.90;93.50;19.30;101074.00;;;;5016136;27;90210;-63
2022/07/13 06:22:00;;;;;;;0.50;0.35;;;19.00;92.90;19.40;101077.00;;;;4995074;27;112674;-63
2022/07/13 06:24:26;;;;;;;0.80;0.68;;;19.10;92.70;19.50;101068.00;;;;4998440;27;108065;-62
2022/07/13 06:26:52;;;;;;;0.98;0.68;;;19.30;92.30;19.70;101076.00;;;;4994553;27;117736;-62
2022/07/13 06:29:18;;;;;;;0.50;0.32;;;19.40;91.90;19.80;101064.00;;;;4996463;28;88929;-62
2022/07/13 06:31:43;;;;;;;0.75;0.70;;;19.60;91.60;20.00;101060.00;;;;4996310;27;87632;-63
2022/07/13 06:34:09;;;;;;;1.13;0.85;;;19.70;91.20;20.10;101066.00;;;;5012537;27;108012;-63
2022/07/13 06:36:35;;;;;;;3.00;1.13;;;19.80;90.80;20.20;101071.00;;;;5000240;27;117504;-62
2022/07/13 06:39:01;;;;;;;1.80;1.05;;;19.90;90.40;20.30;101079.00;;;;4997624;27;88630;-62
2022/07/13 06:41:27;;;;;;;0.98;0.70;;;20.10;90.20;20.40;101074.00;;;;4995662;27;89034;-63
2022/07/13 06:43:53;;;;;;;1.48;0.65;;;20.20;90.00;20.60;101067.00;;;;5009426;27;87890;-62
2022/07/13 06:46:19;;;;;;;0.55;0.50;;;20.30;89.20;20.70;101066.00;;;;5002670;27;117667;-63
2022/07/13 06:48:44;;;;;;;2.78;0.77;;;20.40;88.30;20.80;101072.00;;;;4996278;28;92617;-62
2022/07/13 06:51:11;;;;;;;0.50;0.50;;;20.50;87.80;20.90;101068.00;;;;4977313;28;88052;-63
2022/07/13 06:53:36;;;;;;;0.82;0.77;;;20.60;86.70;21.00;101059.00;;;;5005175;27;87735;-63
2022/07/13 06:56:03;;;;;;;0.55;0.55;;;20.70;85.60;21.10;101065.00;;;;4993834;27;112822;-63
2022/07/13 06:58:29;;;;;;;0.93;0.70;;;20.80;84.30;21.10;101067.00;;;;5016360;27;87768;-62
2022/07/13 07:00:54;;;;;;;3.00;0.90;;;20.90;82.90;21.20;101070.00;;;;5005870;27;110813;-62
2022/07/13 07:03:20;;;;;;;0.30;0.30;;;20.90;82.50;21.30;101074.00;;;;4996758;27;94166;-63
2022/07/13 07:05:46;;;;;;;2.15;0.70;;;21.00;81.60;21.40;101078.00;;;;4994805;28;101246;-63
2022/07/13 07:08:11;;;;;;;1.23;0.55;;;21.20;81.00;21.60;101068.00;;;;4996216;27;88905;-62
2022/07/13 07:10:37;;;;;;;2.42;0.63;;;21.30;79.70;21.70;101057.00;;;;5012912;27;106297;-63
2022/07/13 07:13:03;;;;;;;1.05;0.63;;;21.40;78.20;21.80;101054.00;;;;5014997;27;107936;-63
2022/07/13 07:15:29;;;;;;;1.35;0.85;;;21.60;77.00;22.00;101050.00;;;;4996069;27;105129;-64
2022/07/13 07:17:55;;;;;;;0.50;0.40;;;21.70;76.50;22.10;101051.00;;;;5009914;27;99879;-63
2022/07/13 07:20:20;;;;;;;0.50;0.50;;;21.80;76.10;22.30;101035.00;;;;5013999;27;98928;-63
2022/07/13 07:22:47;;;;;;;1.58;0.65;;;21.90;74.80;22.40;101031.00;;;;5016220;27;87039;-63
2022/07/13 07:25:13;;;;;;;1.38;0.85;;;22.10;73.80;22.50;101037.00;;;;4995496;27;98124;-63
2022/07/13 07:27:43;;;;;;;0.73;0.60;;;22.20;73.60;22.70;101038.00;;;;5007077;27;88068;-64
2022/07/13 07:30:10;;;;;;;1.38;0.90;;;22.30;73.40;22.90;101042.00;;;;5013812;27;88778;-64
2022/07/13 07:32:37;;;;;;;1.58;1.10;;;22.50;72.70;23.20;101050.00;;;;5015868;27;87654;-64
2022/07/13 07:35:03;;;;;;;1.23;1.02;;;22.80;72.50;23.70;101044.00;;;;5002733;27;87713;-65
2022/07/13 07:37:29;;;;;;;0.73;0.68;;;23.20;72.00;24.10;101044.00;;;;5002850;27;111380;-64
2022/07/13 07:39:55;;;;;;;0.75;0.60;;;23.70;70.50;24.60;101041.00;;;;5004312;27;111990;-64
2022/07/13 07:42:21;;;;;;;0.50;0.47;;;24.10;68.90;24.90;101039.00;;;;4993909;28;109899;-64
2022/07/13 07:44:47;;;;;;;0.40;0.30;;;24.40;67.00;25.10;101045.00;;;;4995185;28;87759;-64
2022/07/13 07:47:13;;;;;;;0.93;0.75;;;24.70;64.10;25.30;101041.00;;;;5002211;27;117580;-64
2022/07/13 07:49:38;;;;;;;0.35;0.30;;;24.90;63.20;25.40;101041.00;;;;5011773;27;111653;-64
2022/07/13 07:52:04;;;;;;;1.20;0.85;;;25.10;61.70;25.60;101033.00;;;;5011948;27;108125;-64
2022/07/13 07:54:30;;;;;;;0.68;0.68;;;25.20;59.50;25.60;101030.00;;;;5013530;27;106658;-63
2022/07/13 07:56:56;;;;;;;1.00;0.90;;;25.30;57.50;25.50;101024.00;;;;5007948;27;118747;-64
2022/07/13 07:59:21;;;;;;;0.95;0.75;;;25.30;57.00;25.50;101016.00;;;;4995775;28;87853;-63
2022/07/13 08:01:47;;;;;;;1.05;0.55;;;25.30;56.30;25.60;101021.00;;;;4994444;27;109200;-65
2022/07/13 08:04:12;;;;;;;1.75;0.80;;;25.30;56.50;25.70;101020.00;;;;4994195;27;117251;-65
2022/07/13 08:06:38;;;;;;;0.47;0.47;;;25.40;56.20;25.80;101020.00;;;;4997662;27;116440;-64
2022/07/13 08:09:04;;;;;;;0.50;0.35;;;25.50;55.30;25.90;101021.00;;;;5009428;27;110849;-65
2022/07/13 08:11:30;;;;;;;0.60;0.45;;;25.60;54.80;26.00;101024.00;;;;4994551;27;108871;-65
2022/07/13 08:13:56;;;;;;;0.98;0.80;;;25.70;55.10;26.20;101018.00;;;;5009807;27;117080;-65
2022/07/13 08:16:22;;;;;;;1.08;0.63;;;25.80;54.40;26.40;101022.00;;;;5014052;27;103398;-64
2022/07/13 08:18:49;;;;;;;1.50;0.55;;;26.00;54.60;26.60;101014.00;;;;5002686;27;88583;-64
2022/07/13 08:21:14;;;;;;;1.55;0.70;;;26.20;54.40;26.80;101022.00;;;;5013003;27;87706;-64
2022/07/13 08:23:52;;;;;;;0.82;0.40;;;26.40;54.30;27.00;101016.00;;;;5013791;27;117715;-65
2022/07/13 08:26:22;;;;;;;0.60;0.60;;;26.60;53.10;27.10;101007.00;;;;5012903;27;87973;-64
2022/07/13 08:28:50;;;;;;;0.80;0.45;;;26.80;52.90;27.30;101007.00;;;;4984436;27;87719;-65
2022/07/13 08:31:16;;;;;;;1.25;0.82;;;26.90;52.50;27.40;100996.00;;;;5014104;27;94790;-65
2022/07/13 08:39:22;;;;;;;0.85;0.73;;;27.50;51.10;28.30;101007.00;;;;4955768;28;87873;-65
2022/07/13 08:41:48;;;;;;;1.30;0.70;;;27.80;50.50;28.50;101012.00;;;;4994850;28;87639;-64
2022/07/13 08:44:15;;;;;;;3.95;0.40;;;28.00;48.90;28.60;101002.00;;;;5012331;27;114833;-65
2022/07/13 08:46:42;;;;;;;0.98;0.43;;;28.20;49.20;28.70;101000.00;;;;5010025;27;89453;-65
2022/07/13 08:49:09;;;;;;;1.55;0.63;;;28.30;48.50;28.80;101005.00;;;;5000532;27;87713;-64
2022/07/13 08:51:36;;;;;;;0.68;0.47;;;28.40;48.00;29.00;100996.00;;;;5005555;27;87661;-65
2022/07/13 08:54:07;;;;;;;1.13;0.68;;;28.60;47.60;29.10;100995.00;;;;5003865;27;88295;-65
2022/07/13 08:56:32;;;;;;;2.13;0.40;;;28.70;46.80;29.20;100997.00;;;;4997602;28;88461;-64
2022/07/13 08:59:01;;;;;;;0.63;0.52;;;28.80;46.60;29.40;100991.00;;;;5006196;27;87951;-64
2022/07/13 09:01:27;;;;;;;1.17;0.50;;;29.00;46.60;29.60;100991.00;;;;5018179;27;98040;-65
2022/07/13 09:03:53;;;;;;;1.05;0.80;;;29.20;45.60;29.90;100989.00;;;;5017344;27;117588;-65
2022/07/13 09:06:48;;;;;;;1.08;0.85;;;29.40;46.00;30.20;100990.00;;;;5003981;27;87586;-64
2022/07/13 09:09:35;;;;;;;0.40;0.28;;;29.70;45.20;30.40;100985.00;;;;4998235;27;88629;-65
2022/07/13 09:12:16;;;;;;;0.90;0.60;;;30.00;43.80;30.60;100996.00;;;;4997371;28;87698;-64
2022/07/13 09:14:50;;;;;;;0.70;0.65;;;30.20;44.20;31.00;100990.00;;;;4996778;28;87940;-65
2022/07/13 09:17:43;;;;;;;0.88;0.55;;;30.50;43.70;31.20;100993.00;;;;5012443;27;88186;-65
2022/07/13 09:20:15;;;;;;;0.55;0.52;;;30.70;42.60;31.30;100994.00;;;;4976120;28;87792;-64
2022/07/13 09:22:56;;;;;;;1.17;0.75;;;30.90;41.60;31.40;100987.00;;;;4977186;28;87852;-64
2022/07/13 09:25:37;;;;;;;0.57;0.45;;;31.00;41.80;31.60;100986.00;;;;4976961;27;90644;-64
2022/07/13 09:28:08;;;;;;;0.55;0.38;;;31.10;42.00;31.80;100987.00;;;;5014078;27;88331;-65
2022/07/13 09:30:36;;;;;;;0.85;0.55;;;31.30;41.10;32.00;100982.00;;;;5016539;27;87770;-65
2022/07/13 09:33:03;;;;;;;0.22;0.22;;;31.50;40.20;32.10;100985.00;;;;5016982;27;97708;-65
2022/07/13 09:35:45;;;;;;;0.52;0.30;;;31.70;40.00;32.20;100984.00;;;;5010325;27;88791;-64
2022/07/13 09:38:38;;;;;;;0.88;0.45;;;31.80;39.00;32.40;100986.00;;;;4996199;27;88600;-64
2022/07/13 09:41:24;;;;;;;0.45;0.40;;;31.90;38.90;32.60;100986.00;;;;5018288;27;87930;-64
2022/07/13 09:47:01;;;;;;;1.25;0.50;;;32.40;38.00;33.10;100988.00;;;;4998562;27;87763;-63
2022/07/13 09:49:41;;;;;;;1.05;0.40;;;32.60;37.90;33.20;100987.00;;;;5014800;27;87879;-64
2022/07/13 09:52:19;;;;;;;0.50;0.40;;;32.70;37.00;33.10;100982.00;;;;4958464;28;87925;-64
2022/07/13 09:54:56;;;;;;;0.85;0.43;;;32.70;36.30;33.10;100984.00;;;;4999735;27;100340;-64
2022/07/13 09:57:23;;;;;;;0.20;0.20;;;32.70;36.50;33.10;100995.00;;;;5016806;27;87714;-64
2022/07/13 09:59:50;;;;;;;0.40;0.40;;;32.70;35.80;33.20;100977.00;;;;4994162;27;95123;-64
2022/07/13 10:02:16;;;;;;;0.80;0.40;;;32.80;35.90;33.40;100974.00;;;;4977227;28;110499;-65
2022/07/13 10:04:42;;;;;;;1.45;0.40;;;32.90;35.40;33.60;100976.00;;;;4997385;28;87646;-65
2022/07/13 10:07:09;;;;;;;0.25;0.25;;;33.10;34.70;33.60;100972.00;;;;4994978;28;108554;-65
2022/07/13 10:09:38;;;;;;;0.38;0.20;;;33.10;33.30;33.70;100967.00;;;;4999013;27;88652;-65
2022/07/13 10:12:08;;;;;;;0.30;0.30;;;33.20;34.00;33.80;100962.00;;;;4996415;28;97347;-65
2022/07/13 10:14:36;;;;;;;0.20;0.13;;;33.30;34.30;34.00;100956.00;;;;4994819;28;87789;-65
2022/07/13 10:17:07;;;;;;;0.30;0.25;;;33.40;34.40;34.10;100959.00;;;;4996590;28;87519;-65
2022/07/13 10:19:51;;;;;;;0.40;0.40;;;33.60;34.60;34.20;100969.00;;;;5004265;27;88261;-64
2022/07/13 10:22:21;;;;;;;0.30;0.30;;;33.60;34.30;34.30;100963.00;;;;4977532;28;87806;-65
2022/07/13 10:24:52;;;;;;;0.90;0.38;;;33.70;34.10;34.40;100965.00;;;;5007210;27;87577;-65
2022/07/13 10:27:32;;;;;;;0.40;0.30;;;33.80;33.80;34.50;100980.00;;;;5015048;27;89626;-64
2022/07/13 10:30:17;;;;;;;0.30;0.30;;;33.90;33.60;34.70;100973.00;;;;5002045;27;101662;-64
2022/07/13 10:32:43;;;;;;;0.10;0.10;;;34.10;33.00;35.00;100979.00;;;;4998803;27;88596;-64
2022/07/13 10:35:12;;;;;;;0.57;0.40;;;34.30;33.60;35.20;100963.00;;;;4998322;27;88405;-64
2022/07/13 10:37:56;;;;;;;0.52;0.47;;;34.50;32.00;34.90;100955.00;;;;5014221;27;104341;-65
2022/07/13 10:40:23;;;;;;;0.40;0.30;;;34.50;31.10;34.40;100958.00;;;;4977410;28;89949;-65
2022/07/13 10:42:58;;;;;;;0.57;0.38;;;34.10;31.00;34.00;100955.00;;;;4996343;28;90260;-64
2022/07/13 10:48:05;;;;;;;0.20;0.20;;;33.40;32.20;33.50;100962.00;;;;5014491;27;87874;-65
2022/07/13 10:50:48;;;;;;;0.52;0.43;;;33.10;32.90;33.50;100953.00;;;;5013519;27;90772;-65
2022/07/13 10:53:18;;;;;;;0.50;0.40;;;33.10;33.50;33.70;100951.00;;;;4997332;27;88720;-65
2022/07/13 10:55:49;;;;;;;0.32;0.20;;;33.10;33.50;33.90;100933.00;;;;4996489;27;87547;-65
2022/07/13 10:58:39;;;;;;;0.30;0.30;;;33.30;33.30;34.20;100939.00;;;;4996892;27;88800;-64